Time;durP1;ratioP1;P1;durP2;ratioP2;P2;SDS_P1;SDS_P2;PMS_P1;PMS_P2;Temp;Humidity;BMP_temperature;BMP_pressure;BME280_temperature;BME280_humidity;BME280_pressure;Samples;Min_cycle;Max_cycle;Signal;HPM_P1;HPM_P2
2022/04/24 03:02:12;;;;;;;74.23;69.17;;;9.90;99.90;;;;;;5108166;23;20237;-79
2022/04/24 03:04:39;;;;;;;79.40;73.80;;;9.80;99.90;;;;;;4944117;29;20183;-79
2022/04/24 03:07:05;;;;;;;75.73;70.50;;;9.90;99.90;;;;;;4938911;29;20186;-80
2022/04/24 03:09:32;;;;;;;96.00;89.63;;;9.90;99.90;;;;;;4939495;29;20617;-79
2022/04/24 03:11:58;;;;;;;71.67;66.77;;;9.90;99.90;;;;;;4938822;29;20202;-79
2022/04/24 03:14:27;;;;;;;65.80;60.93;;;9.90;99.90;;;;;;4937712;29;20199;-78
2022/04/24 03:16:52;;;;;;;66.97;62.27;;;9.90;99.90;;;;;;4936948;29;20552;-79
2022/04/24 03:19:18;;;;;;;66.27;61.87;;;9.80;99.90;;;;;;4937499;29;20194;-79
2022/04/24 03:21:44;;;;;;;88.93;83.07;;;9.80;99.90;;;;;;4942666;29;20214;-79
2022/04/24 03:24:10;;;;;;;63.97;59.40;;;9.90;99.90;;;;;;4941665;29;20188;-81
2022/04/24 03:26:36;;;;;;;54.00;49.77;;;9.90;99.90;;;;;;4943780;29;20230;-81
2022/04/24 03:29:02;;;;;;;50.63;46.57;;;9.90;99.90;;;;;;4936676;29;20193;-81
2022/04/24 03:31:28;;;;;;;42.63;38.90;;;9.90;99.90;;;;;;4937277;29;20843;-80
2022/04/24 03:33:54;;;;;;;34.37;31.10;;;9.90;99.90;;;;;;4935982;29;20190;-80
2022/04/24 03:36:20;;;;;;;33.83;30.53;;;9.80;99.90;;;;;;4940070;29;20205;-80
2022/04/24 03:38:46;;;;;;;32.73;29.43;;;9.80;99.90;;;;;;4948941;29;20197;-80
2022/04/24 03:41:12;;;;;;;32.17;28.87;;;9.80;99.90;;;;;;4951673;29;20222;-80
2022/04/24 03:43:38;;;;;;;35.27;31.87;;;9.80;99.90;;;;;;4947795;29;20277;-81
2022/04/24 03:46:07;;;;;;;35.97;32.80;;;9.80;99.90;;;;;;4935990;29;20214;-81
2022/04/24 03:48:34;;;;;;;33.60;30.40;;;9.80;99.90;;;;;;4937039;29;20186;-80
2022/04/24 03:51:00;;;;;;;37.17;33.50;;;9.90;99.90;;;;;;4939393;29;20206;-80
2022/04/24 03:53:25;;;;;;;38.67;35.33;;;9.90;99.90;;;;;;4937940;29;20265;-80
2022/04/24 03:55:51;;;;;;;38.90;35.43;;;9.90;99.90;;;;;;4939971;29;20197;-80
2022/04/24 03:58:17;;;;;;;36.67;33.17;;;10.00;99.90;;;;;;4938649;29;20194;-80
2022/04/24 04:00:43;;;;;;;31.50;28.30;;;9.90;99.90;;;;;;4952190;28;20285;-80
2022/04/24 04:03:08;;;;;;;29.90;26.97;;;9.90;99.90;;;;;;4959791;29;20182;-79
2022/04/24 04:05:38;;;;;;;28.90;24.70;;;10.00;99.90;;;;;;4948437;29;20189;-80
2022/04/24 04:08:04;;;;;;;31.13;28.17;;;10.00;99.90;;;;;;4940579;29;20606;-81
2022/04/24 04:10:30;;;;;;;33.47;30.10;;;10.00;99.90;;;;;;4938905;29;20206;-80
2022/04/24 04:12:56;;;;;;;34.60;31.37;;;10.00;99.90;;;;;;4937714;29;20186;-80
2022/04/24 04:15:22;;;;;;;32.07;29.00;;;9.90;99.90;;;;;;4938442;29;20245;-80
2022/04/24 04:17:48;;;;;;;30.13;26.97;;;9.90;99.90;;;;;;4939207;29;20189;-80
2022/04/24 04:20:14;;;;;;;35.87;32.57;;;9.90;99.90;;;;;;4940630;29;20183;-80
2022/04/24 04:22:50;;;;;;;42.80;38.83;;;9.90;99.90;;;;;;4938655;29;20217;-80
2022/04/24 04:25:16;;;;;;;28.80;22.23;;;10.00;99.90;;;;;;4940370;29;20190;-80
2022/04/24 04:27:42;;;;;;;25.87;21.07;;;10.00;99.90;;;;;;4938866;29;20179;-81
2022/04/24 04:30:09;;;;;;;25.87;23.23;;;10.00;99.90;;;;;;4939365;29;20285;-80
2022/04/24 04:32:35;;;;;;;31.63;28.63;;;10.00;99.90;;;;;;4955369;29;20169;-79
2022/04/24 04:35:01;;;;;;;35.27;31.90;;;10.10;99.90;;;;;;4958970;29;20246;-79
2022/04/24 04:37:27;;;;;;;45.60;41.63;;;10.10;99.90;;;;;;4952182;29;20179;-81
2022/04/24 04:39:52;;;;;;;65.37;60.03;;;10.10;99.90;;;;;;4946240;29;20178;-79
2022/04/24 04:42:18;;;;;;;50.87;46.67;;;10.10;99.90;;;;;;4938146;29;20215;-80
2022/04/24 04:44:44;;;;;;;42.77;38.83;;;10.10;99.90;;;;;;4936369;29;20647;-79
2022/04/24 04:47:10;;;;;;;49.80;45.73;;;10.10;99.90;;;;;;4936263;29;20647;-80
2022/04/24 04:49:36;;;;;;;72.63;67.23;;;10.10;99.90;;;;;;4938235;29;20245;-79
2022/04/24 04:52:01;;;;;;;59.87;54.57;;;10.10;99.90;;;;;;4938863;29;20270;-80
2022/04/24 04:54:27;;;;;;;128.13;119.73;;;10.00;99.90;;;;;;4943269;29;20190;-79
2022/04/24 04:56:53;;;;;;;109.80;102.50;;;10.00;99.90;;;;;;4942692;29;20189;-81
2022/04/24 04:59:19;;;;;;;237.13;222.87;;;10.00;99.90;;;;;;4942473;29;20193;-80
2022/04/24 05:01:45;;;;;;;104.83;97.67;;;10.10;99.90;;;;;;4943583;29;20217;-79
2022/04/24 05:04:10;;;;;;;136.40;127.60;;;10.10;99.90;;;;;;4950391;29;20214;-78
2022/04/24 05:06:37;;;;;;;105.43;98.07;;;10.00;99.90;;;;;;4950320;29;20187;-79
2022/04/24 05:09:05;;;;;;;62.13;57.73;;;10.00;99.90;;;;;;4946617;29;20190;-80
2022/04/24 05:11:31;;;;;;;63.60;59.43;;;9.80;99.90;;;;;;4946530;29;20213;-80
2022/04/24 05:13:57;;;;;;;30.17;27.07;;;9.70;99.90;;;;;;4945442;29;20279;-80
2022/04/24 05:16:23;;;;;;;27.87;25.17;;;9.60;99.90;;;;;;4943952;29;20186;-79
2022/04/24 05:18:49;;;;;;;12.40;11.20;;;9.60;99.90;;;;;;4944294;29;20223;-79
2022/04/24 05:21:17;;;;;;;25.30;23.37;;;9.40;99.90;;;;;;4945212;29;20210;-79
2022/04/24 05:23:45;;;;;;;26.13;24.27;;;9.30;99.90;;;;;;4942321;29;20217;-79
2022/04/24 05:26:12;;;;;;;58.03;54.80;;;9.20;99.90;;;;;;4942798;29;20245;-79
2022/04/24 05:28:38;;;;;;;21.47;20.10;;;9.10;99.90;;;;;;4941186;29;20665;-79
2022/04/24 05:31:05;;;;;;;84.63;80.13;;;9.00;99.90;;;;;;4943421;29;20301;-79
2022/04/24 05:33:32;;;;;;;62.20;58.63;;;8.90;99.90;;;;;;4948459;29;20197;-79
2022/04/24 05:35:57;;;;;;;52.70;49.37;;;8.90;99.90;;;;;;4944641;29;20303;-78
2022/04/24 05:38:23;;;;;;;16.47;15.37;;;8.80;99.90;;;;;;4946909;29;20186;-78
2022/04/24 05:40:49;;;;;;;13.60;12.50;;;8.80;99.90;;;;;;4946872;29;20694;-77
2022/04/24 05:43:15;;;;;;;23.13;21.83;;;8.80;99.90;;;;;;4950370;29;20182;-78
2022/04/24 05:45:41;;;;;;;24.13;22.77;;;8.80;99.90;;;;;;4948699;29;20211;-78
2022/04/24 05:48:07;;;;;;;31.53;29.40;;;8.80;99.90;;;;;;4946171;29;20197;-78
2022/04/24 05:50:33;;;;;;;43.53;41.23;;;8.80;99.90;;;;;;4934351;29;20210;-74
2022/04/24 05:52:59;;;;;;;54.60;51.73;;;8.80;99.90;;;;;;4932056;29;20276;-74
2022/04/24 05:55:25;;;;;;;60.63;57.17;;;8.70;99.90;;;;;;4934138;29;20178;-74
2022/04/24 05:57:53;;;;;;;62.93;59.40;;;8.70;99.90;;;;;;4933650;29;20198;-73
2022/04/24 06:00:20;;;;;;;66.20;62.90;;;8.70;99.90;;;;;;4933292;29;20184;-74
2022/04/24 06:02:46;;;;;;;30.63;29.03;;;8.60;99.90;;;;;;4932512;29;20209;-74
2022/04/24 06:05:12;;;;;;;31.37;29.70;;;8.60;99.90;;;;;;4933875;29;20253;-73
2022/04/24 06:07:39;;;;;;;30.90;29.27;;;8.50;99.90;;;;;;4933252;29;20183;-73
2022/04/24 06:10:06;;;;;;;25.83;24.53;;;8.50;99.90;;;;;;4933766;29;20178;-74
2022/04/24 06:12:42;;;;;;;38.17;35.67;;;8.40;99.90;;;;;;4933698;29;20202;-73
2022/04/24 06:15:13;;;;;;;37.03;35.27;;;8.40;99.90;;;;;;4935220;29;20545;-73
2022/04/24 06:17:39;;;;;;;36.87;35.00;;;8.40;99.90;;;;;;4936218;29;20185;-73
2022/04/24 06:20:05;;;;;;;35.47;33.70;;;8.40;99.90;;;;;;4936538;29;20654;-73
2022/04/24 06:22:48;;;;;;;27.53;26.03;;;8.40;99.90;;;;;;4936779;29;20696;-73
2022/04/24 06:25:20;;;;;;;52.83;50.00;;;8.40;99.90;;;;;;4940225;29;20198;-72
2022/04/24 06:27:47;;;;;;;78.17;74.03;;;8.40;99.90;;;;;;4936803;29;20187;-73
2022/04/24 06:30:15;;;;;;;28.90;27.50;;;8.40;99.90;;;;;;4949473;29;20206;-73
2022/04/24 06:32:42;;;;;;;28.73;27.30;;;8.40;99.90;;;;;;4949345;29;20186;-73
2022/04/24 06:35:11;;;;;;;38.27;36.40;;;8.40;99.90;;;;;;4936792;29;20250;-74
2022/04/24 06:37:42;;;;;;;47.60;45.07;;;8.40;99.90;;;;;;4937073;29;20194;-74
2022/04/24 06:40:10;;;;;;;43.73;41.40;;;8.40;99.90;;;;;;4937184;29;20210;-74
2022/04/24 06:42:46;;;;;;;46.90;44.53;;;8.40;99.90;;;;;;4937269;29;20183;-74
2022/04/24 06:45:12;;;;;;;65.53;62.23;;;8.40;99.90;;;;;;4937204;29;20716;-76
2022/04/24 06:47:38;;;;;;;28.97;27.43;;;8.50;99.90;;;;;;4927745;29;20202;-74
2022/04/24 06:50:04;;;;;;;27.60;26.37;;;8.50;99.90;;;;;;4926071;29;20195;-74
2022/04/24 06:52:30;;;;;;;42.70;40.50;;;8.40;99.90;;;;;;4933322;29;20296;-74
2022/04/24 06:54:58;;;;;;;30.20;28.80;;;8.40;99.90;;;;;;4936869;29;20281;-74
2022/04/24 06:57:24;;;;;;;25.27;23.97;;;8.50;99.90;;;;;;4936658;29;20660;-74
2022/04/24 06:59:50;;;;;;;23.23;21.97;;;8.50;99.90;;;;;;4934262;29;20193;-74
2022/04/24 07:02:16;;;;;;;14.33;13.67;;;8.50;99.90;;;;;;4933855;29;20227;-74
2022/04/24 07:04:41;;;;;;;17.43;16.60;;;8.50;99.90;;;;;;4936518;29;20230;-74
2022/04/24 07:07:07;;;;;;;8.53;8.17;;;8.50;99.90;;;;;;4936235;29;20234;-74
2022/04/24 07:09:33;;;;;;;5.60;5.40;;;8.50;99.90;;;;;;4936194;29;20181;-75
2022/04/24 07:11:59;;;;;;;5.13;4.93;;;8.60;99.90;;;;;;4936149;29;20198;-74
2022/04/24 07:14:25;;;;;;;6.77;6.37;;;8.60;99.90;;;;;;4935274;29;20199;-75
2022/04/24 07:16:50;;;;;;;4.17;4.07;;;8.70;99.90;;;;;;4935723;29;20190;-74
2022/04/24 07:19:16;;;;;;;4.03;3.80;;;8.70;99.90;;;;;;4927201;29;20630;-74
2022/04/24 07:21:42;;;;;;;4.30;4.10;;;8.80;99.90;;;;;;4927069;29;20227;-74
2022/04/24 07:24:08;;;;;;;4.27;4.17;;;8.80;99.90;;;;;;4919656;29;20183;-74
2022/04/24 07:26:34;;;;;;;4.67;4.40;;;8.70;99.90;;;;;;4925258;29;20174;-73
2022/04/24 07:29:00;;;;;;;3.90;3.80;;;8.70;99.90;;;;;;4935492;29;20314;-74
2022/04/24 07:31:26;;;;;;;4.80;4.40;;;8.70;99.90;;;;;;4934521;29;20230;-74
2022/04/24 07:33:52;;;;;;;4.97;4.67;;;8.70;99.90;;;;;;4934790;29;20198;-74
2022/04/24 07:36:18;;;;;;;4.97;4.83;;;8.70;99.90;;;;;;4950792;29;20191;-75
2022/04/24 07:38:44;;;;;;;4.70;4.50;;;8.70;99.90;;;;;;4950263;29;20249;-73
2022/04/24 07:41:10;;;;;;;5.27;5.07;;;8.70;99.90;;;;;;4935634;29;20591;-73
2022/04/24 07:43:36;;;;;;;4.20;4.10;;;8.80;99.90;;;;;;4935076;29;20221;-74
2022/04/24 07:46:02;;;;;;;4.83;4.63;;;8.80;99.90;;;;;;4934709;29;20213;-73
2022/04/24 07:48:28;;;;;;;4.23;4.13;;;8.90;99.90;;;;;;4936211;29;20224;-73
2022/04/24 07:50:54;;;;;;;4.47;4.07;;;8.90;99.90;;;;;;4935336;29;20587;-74
2022/04/24 07:53:21;;;;;;;3.97;3.83;;;8.80;99.90;;;;;;4935247;29;20215;-74
2022/04/24 07:55:49;;;;;;;4.67;4.40;;;8.80;99.90;;;;;;4935625;29;20187;-74
2022/04/24 07:58:15;;;;;;;4.43;4.23;;;8.80;99.90;;;;;;4950287;29;20187;-74
2022/04/24 08:00:42;;;;;;;3.60;3.50;;;8.90;99.90;;;;;;4934279;29;20237;-74
2022/04/24 08:03:12;;;;;;;7.83;7.20;;;8.80;99.90;;;;;;4934087;29;20549;-73
2022/04/24 08:05:47;;;;;;;4.67;4.43;;;8.90;99.90;;;;;;4934685;29;20273;-73
2022/04/24 08:08:15;;;;;;;3.97;3.87;;;8.90;99.90;;;;;;4935563;29;20213;-73
2022/04/24 08:10:43;;;;;;;4.33;4.23;;;8.90;99.90;;;;;;4934662;29;20210;-73
2022/04/24 08:13:10;;;;;;;7.70;7.43;;;8.90;99.90;;;;;;4941373;29;20186;-73
2022/04/24 08:15:37;;;;;;;35.73;34.10;;;8.90;99.90;;;;;;4916841;29;20189;-73
2022/04/24 08:18:04;;;;;;;41.03;39.17;;;8.90;99.90;;;;;;4916446;29;20183;-73
2022/04/24 08:20:31;;;;;;;21.90;20.93;;;8.90;99.90;;;;;;4919974;29;20238;-74
2022/04/24 08:22:59;;;;;;;25.50;24.33;;;9.00;99.90;;;;;;4935749;29;20185;-73
2022/04/24 08:25:27;;;;;;;24.10;22.97;;;9.00;99.90;;;;;;4935248;29;20237;-73
2022/04/24 08:27:54;;;;;;;14.87;14.13;;;8.90;99.90;;;;;;4950112;29;20186;-74
2022/04/24 08:30:23;;;;;;;9.23;8.83;;;8.90;99.90;;;;;;4945118;29;20182;-73
2022/04/24 08:32:49;;;;;;;6.10;5.90;;;9.00;99.90;;;;;;4936321;29;20186;-74
2022/04/24 08:35:17;;;;;;;7.23;6.77;;;9.00;99.90;;;;;;4935355;29;20194;-74
2022/04/24 08:37:43;;;;;;;5.97;5.77;;;9.10;99.90;;;;;;4934837;29;20571;-74
2022/04/24 08:40:11;;;;;;;6.23;6.03;;;9.10;99.90;;;;;;4934927;29;20189;-73
2022/04/24 08:42:38;;;;;;;4.60;4.50;;;9.20;99.90;;;;;;4937579;29;20531;-73
2022/04/24 08:45:05;;;;;;;4.37;4.20;;;9.10;99.90;;;;;;4945197;29;20649;-73
2022/04/24 08:47:31;;;;;;;4.53;4.30;;;9.20;99.90;;;;;;4961685;29;20190;-74
2022/04/24 08:50:01;;;;;;;5.27;4.53;;;9.20;99.90;;;;;;4935232;29;20193;-74
2022/04/24 08:52:29;;;;;;;4.83;4.63;;;9.20;99.90;;;;;;4934622;29;20682;-74
2022/04/24 08:54:56;;;;;;;6.97;6.63;;;9.10;99.90;;;;;;4935047;29;20277;-73
2022/04/24 08:57:26;;;;;;;4.87;4.67;;;9.10;99.90;;;;;;4934322;29;20245;-73
2022/04/24 08:59:55;;;;;;;5.60;5.17;;;9.20;99.90;;;;;;4934821;29;20186;-73
2022/04/24 09:02:21;;;;;;;6.33;6.03;;;9.20;99.90;;;;;;4934284;29;20222;-73
2022/04/24 09:04:48;;;;;;;7.20;6.77;;;9.30;99.90;;;;;;4934681;29;20564;-73
2022/04/24 09:07:20;;;;;;;4.07;3.97;;;9.30;99.90;;;;;;4934093;29;20185;-73
2022/04/24 09:09:51;;;;;;;5.13;4.83;;;9.40;99.90;;;;;;4949068;29;20193;-73
2022/04/24 09:12:18;;;;;;;4.50;4.30;;;9.40;99.90;;;;;;4934110;29;20236;-73
2022/04/24 09:14:55;;;;;;;6.03;5.73;;;9.30;99.90;;;;;;4955620;23;20186;-78
2022/04/24 09:17:24;;;;;;;5.33;5.03;;;9.50;99.90;;;;;;4934896;29;20203;-77
2022/04/24 09:19:51;;;;;;;4.40;4.10;;;9.50;99.90;;;;;;4933898;29;20185;-78
2022/04/24 09:22:18;;;;;;;4.93;4.73;;;9.70;99.90;;;;;;4952683;29;20243;-77
2022/04/24 09:24:56;;;;;;;5.57;5.37;;;9.70;99.90;;;;;;4962036;29;20184;-78
2022/04/24 09:27:25;;;;;;;5.43;5.20;;;9.70;99.90;;;;;;4946023;29;20174;-78
2022/04/24 09:29:54;;;;;;;5.33;5.10;;;9.70;99.90;;;;;;4946924;29;20178;-78
2022/04/24 09:32:21;;;;;;;29.83;28.47;;;9.80;99.90;;;;;;4933185;29;20194;-78
2022/04/24 09:34:47;;;;;;;46.97;44.73;;;9.70;99.90;;;;;;4932120;29;20207;-78
2022/04/24 09:37:13;;;;;;;29.50;27.97;;;9.70;99.90;;;;;;4929343;29;20743;-79
2022/04/24 09:39:39;;;;;;;15.70;14.80;;;9.70;99.90;;;;;;4917964;29;20210;-79
2022/04/24 09:42:09;;;;;;;11.43;10.73;;;9.60;99.90;;;;;;4918489;29;20207;-79
2022/04/24 09:44:37;;;;;;;6.37;5.87;;;9.70;99.90;;;;;;4923809;29;20194;-78
2022/04/24 09:47:03;;;;;;;6.73;5.07;;;9.70;99.90;;;;;;4927584;29;20179;-78
2022/04/24 09:49:39;;;;;;;5.30;5.10;;;9.60;99.90;;;;;;4930711;29;20194;-79
2022/04/24 09:52:08;;;;;;;6.00;5.50;;;9.60;99.90;;;;;;4935511;29;20216;-78
2022/04/24 09:54:35;;;;;;;5.33;5.03;;;9.60;99.90;;;;;;4942317;29;20191;-77
2022/04/24 09:57:02;;;;;;;4.83;4.63;;;9.60;99.90;;;;;;4940616;29;20213;-79
2022/04/24 09:59:28;;;;;;;5.20;4.90;;;9.60;99.90;;;;;;4941841;29;20178;-77
2022/04/24 10:01:54;;;;;;;5.83;5.53;;;9.60;99.90;;;;;;4941463;29;20217;-78
2022/04/24 10:04:21;;;;;;;5.63;5.23;;;9.60;99.90;;;;;;4942096;29;20178;-79
2022/04/24 10:06:47;;;;;;;5.73;5.33;;;9.70;99.90;;;;;;4940596;29;20201;-78
2022/04/24 10:09:14;;;;;;;4.80;4.50;;;9.70;99.90;;;;;;4942087;29;20238;-79
2022/04/24 10:11:40;;;;;;;5.87;5.57;;;9.70;99.90;;;;;;4934741;29;20194;-80
2022/04/24 10:14:10;;;;;;;6.47;6.13;;;9.90;99.90;;;;;;4926486;29;20270;-79
2022/04/24 10:17:16;;;;;;;44.97;42.80;;;10.00;99.90;;;;;;4922578;29;20703;-80
2022/04/24 10:20:00;;;;;;;51.63;48.93;;;9.80;99.90;;;;;;4931238;29;20197;-80
2022/04/24 10:22:41;;;;;;;54.67;52.00;;;9.70;99.90;;;;;;4924585;29;20211;-80
2022/04/24 10:25:08;;;;;;;53.27;50.63;;;9.60;99.90;;;;;;4923071;29;20228;-79
2022/04/24 10:27:48;;;;;;;62.27;59.17;;;9.70;99.90;;;;;;4922522;29;20178;-80
2022/04/24 10:30:24;;;;;;;67.93;64.70;;;9.60;99.90;;;;;;4922568;29;20225;-79
2022/04/24 10:33:13;;;;;;;51.30;48.77;;;9.60;99.90;;;;;;4937150;29;20180;-78
2022/04/24 10:35:53;;;;;;;24.73;23.60;;;9.50;99.90;;;;;;4941777;29;20580;-79
2022/04/24 10:38:21;;;;;;;5.17;4.97;;;9.50;99.90;;;;;;4941011;29;20186;-79
2022/04/24 10:41:03;;;;;;;5.67;5.43;;;9.40;99.90;;;;;;4938800;29;20341;-79
2022/04/24 10:43:39;;;;;;;6.63;6.33;;;9.40;99.90;;;;;;4921902;29;20183;-78
2022/04/24 10:46:18;;;;;;;6.83;6.43;;;9.50;99.90;;;;;;4922707;29;20203;-79
2022/04/24 10:48:46;;;;;;;5.13;4.83;;;9.50;99.90;;;;;;4924002;29;20205;-79
2022/04/24 10:51:12;;;;;;;6.87;6.37;;;9.50;99.90;;;;;;4930218;29;20182;-80
2022/04/24 10:53:55;;;;;;;7.50;6.97;;;9.70;99.90;;;;;;4958892;29;20194;-79
2022/04/24 10:56:20;;;;;;;5.93;5.63;;;9.70;99.90;;;;;;4960316;29;20189;-81
2022/04/24 10:58:48;;;;;;;6.17;5.87;;;9.70;99.90;;;;;;4944915;29;20292;-80
2022/04/24 11:01:15;;;;;;;5.70;5.30;;;9.80;99.90;;;;;;4954816;29;20199;-80
2022/04/24 11:03:46;;;;;;;7.33;6.83;;;9.80;99.90;;;;;;4931378;29;20183;-80
2022/04/24 11:06:23;;;;;;;7.20;6.90;;;9.80;99.90;;;;;;4922891;29;20215;-79
2022/04/24 11:08:50;;;;;;;8.93;8.53;;;9.90;99.90;;;;;;4919138;29;20326;-80
2022/04/24 11:11:17;;;;;;;11.90;11.40;;;9.90;99.90;;;;;;4925672;29;20178;-80
2022/04/24 11:13:44;;;;;;;6.83;6.50;;;10.00;99.90;;;;;;4939829;29;20190;-79
2022/04/24 11:16:12;;;;;;;5.17;4.97;;;10.00;99.90;;;;;;4938305;29;20320;-80
2022/04/24 11:18:38;;;;;;;24.00;22.83;;;10.00;99.90;;;;;;4928515;29;20676;-79
2022/04/24 11:21:06;;;;;;;4.80;4.50;;;10.10;99.90;;;;;;4922054;29;20222;-79
2022/04/24 11:23:37;;;;;;;18.37;17.57;;;10.30;99.90;;;;;;4938456;29;20230;-80
2022/04/24 11:26:08;;;;;;;23.43;22.37;;;10.40;99.90;;;;;;4938280;29;20214;-80
2022/04/24 11:28:49;;;;;;;62.77;59.73;;;10.50;99.90;;;;;;4946339;29;20191;-78
2022/04/24 11:31:19;;;;;;;70.47;67.10;;;10.50;99.90;;;;;;4944126;29;20194;-78
2022/04/24 11:33:59;;;;;;;43.43;41.33;;;10.50;99.90;;;;;;4921905;29;20191;-78
2022/04/24 11:36:35;;;;;;;66.30;63.13;;;10.60;99.90;;;;;;4917570;29;20202;-77
2022/04/24 11:39:04;;;;;;;43.23;41.17;;;10.50;99.90;;;;;;4915666;29;20197;-78
2022/04/24 11:41:31;;;;;;;13.43;12.83;;;10.50;99.90;;;;;;4923582;29;20252;-77
2022/04/24 11:44:02;;;;;;;17.03;16.23;;;10.60;99.90;;;;;;4937502;29;20178;-78
2022/04/24 11:52:02;;;;;;;16.07;15.23;;;10.80;99.90;;;;;;4922066;29;20191;-79
2022/04/24 11:54:28;;;;;;;14.33;13.63;;;10.90;99.90;;;;;;4907956;29;20200;-74
2022/04/24 11:56:54;;;;;;;16.00;15.20;;;11.00;99.90;;;;;;4895748;29;20271;-78
2022/04/24 11:59:23;;;;;;;7.67;7.27;;;11.20;99.90;;;;;;4914144;29;20219;-74
2022/04/24 12:01:57;;;;;;;8.53;7.80;;;11.30;99.90;;;;;;4916278;29;20218;-74
2022/04/24 12:04:28;;;;;;;6.60;6.20;;;11.40;99.90;;;;;;4915528;29;20190;-74
2022/04/24 12:07:05;;;;;;;5.67;5.27;;;11.30;99.90;;;;;;4913028;29;20183;-79
2022/04/24 12:09:32;;;;;;;5.17;4.87;;;11.30;99.90;;;;;;4900302;29;20282;-80
2022/04/24 12:12:15;;;;;;;4.70;4.50;;;11.40;99.90;;;;;;4915303;29;20322;-80
2022/04/24 12:14:48;;;;;;;4.77;4.57;;;11.60;99.90;;;;;;4899026;29;20187;-79
2022/04/24 12:17:14;;;;;;;6.53;6.23;;;11.60;99.90;;;;;;4919910;29;20571;-80
2022/04/24 12:19:41;;;;;;;7.60;7.30;;;11.60;99.90;;;;;;4931720;29;20230;-80
2022/04/24 12:22:09;;;;;;;10.47;9.87;;;11.60;99.90;;;;;;4915017;29;20198;-79
2022/04/24 12:24:54;;;;;;;11.30;10.70;;;11.70;99.90;;;;;;4919565;29;20179;-80
2022/04/24 12:27:20;;;;;;;12.20;11.70;;;11.70;99.90;;;;;;4920225;29;20309;-79
2022/04/24 12:29:50;;;;;;;12.10;11.53;;;11.80;99.90;;;;;;4918511;29;20179;-79
2022/04/24 12:32:26;;;;;;;11.60;11.13;;;11.90;99.90;;;;;;4917583;29;20194;-79
2022/04/24 12:34:51;;;;;;;4.80;4.50;;;11.60;99.90;;;;;;4914604;29;20224;-79
2022/04/24 12:37:36;;;;;;;13.43;12.77;;;11.60;99.90;;;;;;4911073;29;20186;-79
2022/04/24 12:40:03;;;;;;;22.10;21.00;;;11.60;99.90;;;;;;4913336;29;20186;-79
2022/04/24 12:42:28;;;;;;;27.03;25.80;;;11.60;99.90;;;;;;4923948;29;20277;-78
2022/04/24 12:44:54;;;;;;;16.57;15.67;;;11.40;99.90;;;;;;4925188;29;20244;-79
2022/04/24 12:47:21;;;;;;;7.97;7.37;;;11.30;99.90;;;;;;4922424;29;20282;-79
2022/04/24 12:49:48;;;;;;;5.43;5.23;;;11.40;99.90;;;;;;4938868;29;20189;-79
2022/04/24 12:52:14;;;;;;;6.20;5.90;;;11.40;99.90;;;;;;4939400;29;20194;-79
2022/04/24 12:54:40;;;;;;;5.70;5.50;;;11.40;99.90;;;;;;4937016;29;20189;-79
2022/04/24 12:57:08;;;;;;;4.90;4.70;;;11.40;99.90;;;;;;4935569;29;20178;-79
2022/04/24 12:59:34;;;;;;;6.13;5.67;;;11.40;99.90;;;;;;4901753;29;20544;-79
2022/04/24 13:02:05;;;;;;;6.07;5.67;;;11.40;99.90;;;;;;4900562;29;20215;-79
2022/04/24 13:04:34;;;;;;;6.83;6.33;;;11.50;99.90;;;;;;4914476;29;20184;-78
2022/04/24 13:07:00;;;;;;;6.20;5.90;;;11.50;99.90;;;;;;4898626;29;20245;-79
2022/04/24 13:09:27;;;;;;;10.17;9.67;;;11.60;99.90;;;;;;4935221;29;20318;-79
2022/04/24 13:11:55;;;;;;;24.63;23.50;;;11.60;99.90;;;;;;4939057;29;20213;-78
2022/04/24 13:14:22;;;;;;;31.63;30.13;;;11.50;99.90;;;;;;4936906;29;20249;-79
2022/04/24 13:19:33;;;;;;;27.17;25.90;;;11.40;99.90;;;;;;4919799;29;20190;-79
2022/04/24 13:21:58;;;;;;;17.83;17.03;;;11.40;99.90;;;;;;4921183;29;20221;-79
2022/04/24 13:24:24;;;;;;;16.37;15.67;;;11.40;99.90;;;;;;4916245;29;20291;-70
2022/04/24 13:26:50;;;;;;;14.43;13.80;;;11.30;99.90;;;;;;4913545;29;20207;-70
2022/04/24 13:29:16;;;;;;;5.90;5.60;;;11.20;99.90;;;;;;4930149;29;20213;-70
2022/04/24 13:31:47;;;;;;;5.90;5.60;;;11.10;99.90;;;;;;4932868;29;20189;-71
2022/04/24 13:34:15;;;;;;;8.97;8.33;;;11.00;99.90;;;;;;4932646;29;20186;-70
2022/04/24 13:36:41;;;;;;;8.40;7.90;;;11.00;99.90;;;;;;4933098;29;20202;-70
2022/04/24 13:39:07;;;;;;;6.40;6.10;;;10.80;99.90;;;;;;4917488;29;20242;-71
2022/04/24 13:41:32;;;;;;;7.07;6.57;;;10.80;99.90;;;;;;4913671;29;20211;-72
2022/04/24 13:44:01;;;;;;;16.13;15.30;;;10.90;99.90;;;;;;4910078;29;20187;-70
2022/04/24 13:46:30;;;;;;;6.80;6.50;;;10.90;99.90;;;;;;4915302;29;20282;-77
2022/04/24 13:48:56;;;;;;;8.33;7.93;;;10.80;99.90;;;;;;4915216;29;20655;-77
2022/04/24 13:51:22;;;;;;;6.90;6.50;;;10.80;99.90;;;;;;4918522;29;20193;-76
2022/04/24 13:53:48;;;;;;;7.60;7.00;;;10.80;99.90;;;;;;4915366;29;20187;-75
2022/04/24 13:56:14;;;;;;;7.13;6.73;;;10.80;99.90;;;;;;4923502;29;20647;-75
2022/04/24 13:58:41;;;;;;;8.77;8.30;;;10.90;99.90;;;;;;4932086;29;20186;-76
2022/04/24 14:01:07;;;;;;;7.17;6.77;;;10.80;99.90;;;;;;4934616;29;20623;-74
2022/04/24 14:03:33;;;;;;;7.00;6.50;;;10.80;99.90;;;;;;4942085;29;20204;-75
2022/04/24 14:06:00;;;;;;;8.93;8.43;;;10.70;99.90;;;;;;4936298;29;20206;-77
2022/04/24 14:08:27;;;;;;;70.13;66.23;;;10.60;99.90;;;;;;4925003;29;20544;-76
2022/04/24 14:10:54;;;;;;;92.30;87.83;;;10.60;99.90;;;;;;4914846;29;20682;-76
2022/04/24 14:13:20;;;;;;;83.40;79.10;;;10.70;99.90;;;;;;4913780;29;20702;-76
2022/04/24 14:15:46;;;;;;;76.53;72.83;;;10.70;99.90;;;;;;4913485;29;20231;-76
2022/04/24 14:18:12;;;;;;;108.30;103.10;;;10.70;99.90;;;;;;4919852;29;20194;-76
2022/04/24 14:20:37;;;;;;;67.97;64.73;;;10.50;99.90;;;;;;4933978;29;20182;-76
2022/04/24 14:23:04;;;;;;;27.17;25.93;;;10.40;99.90;;;;;;4932828;29;20801;-76
2022/04/24 14:25:30;;;;;;;13.13;12.53;;;10.40;99.90;;;;;;4932997;29;20206;-76
2022/04/24 14:27:56;;;;;;;11.10;10.70;;;10.30;99.90;;;;;;4928749;29;20179;-76
2022/04/24 14:30:22;;;;;;;9.50;9.10;;;10.30;99.90;;;;;;4914875;29;20179;-76
2022/04/24 14:32:48;;;;;;;7.30;7.00;;;10.30;99.90;;;;;;4914085;29;20179;-76
2022/04/24 14:35:19;;;;;;;7.90;7.60;;;10.20;99.90;;;;;;4914784;29;20199;-76
2022/04/24 14:37:45;;;;;;;8.23;7.93;;;10.20;99.90;;;;;;4920655;29;20179;-76
2022/04/24 14:40:11;;;;;;;13.33;12.63;;;10.10;99.90;;;;;;4937577;29;20202;-76
2022/04/24 14:42:37;;;;;;;13.07;12.50;;;10.20;99.90;;;;;;4936157;29;20304;-76
2022/04/24 14:45:05;;;;;;;12.30;11.70;;;10.10;99.90;;;;;;4937074;29;20210;-75
2022/04/24 14:55:44;;;;;;;11.27;10.80;;;9.90;99.90;;;;;;4917959;29;20262;-75
2022/04/24 14:58:11;;;;;;;22.83;21.73;;;10.00;99.90;;;;;;4922988;29;20651;-75
2022/04/24 15:00:40;;;;;;;21.43;20.47;;;9.90;99.90;;;;;;4936725;29;20261;-75
2022/04/24 15:03:09;;;;;;;28.70;27.30;;;9.90;99.90;;;;;;4936886;29;20651;-76
2022/04/24 15:05:39;;;;;;;19.37;18.53;;;9.90;99.90;;;;;;4936418;29;20206;-75
2022/04/24 15:08:13;;;;;;;37.67;35.87;;;9.80;99.90;;;;;;4932306;29;20189;-76
2022/04/24 15:10:40;;;;;;;33.37;31.70;;;9.80;99.90;;;;;;4918030;29;20238;-76
2022/04/24 15:13:06;;;;;;;26.50;25.30;;;9.80;99.90;;;;;;4916689;29;20237;-75
2022/04/24 15:15:32;;;;;;;24.20;23.03;;;9.80;99.90;;;;;;4917578;29;20282;-76
2022/04/24 15:17:58;;;;;;;17.87;16.80;;;9.90;99.90;;;;;;4920612;29;20178;-75
2022/04/24 15:20:24;;;;;;;17.93;17.10;;;9.90;99.90;;;;;;4936570;29;20273;-75
2022/04/24 15:22:51;;;;;;;15.73;15.00;;;9.90;99.90;;;;;;4935440;29;20183;-76
2022/04/24 15:25:17;;;;;;;25.37;24.00;;;10.00;99.90;;;;;;4935612;29;20291;-76
2022/04/24 15:27:44;;;;;;;30.80;29.23;;;10.00;99.90;;;;;;4936044;29;20187;-76
2022/04/24 15:30:10;;;;;;;10.70;10.20;;;10.10;99.90;;;;;;4921605;29;20269;-76
2022/04/24 15:32:37;;;;;;;20.97;20.03;;;10.10;99.90;;;;;;4924183;29;20186;-76
2022/04/24 15:35:07;;;;;;;23.93;22.87;;;10.10;99.90;;;;;;4925709;29;20297;-76
2022/04/24 15:37:35;;;;;;;21.17;20.23;;;10.10;99.90;;;;;;4923021;29;20191;-76
2022/04/24 15:40:03;;;;;;;31.80;30.30;;;10.10;99.90;;;;;;4936154;29;20563;-76
2022/04/24 15:42:29;;;;;;;21.37;20.37;;;10.10;99.90;;;;;;4936278;29;20650;-77
2022/04/24 15:45:10;;;;;;;22.30;21.30;;;10.10;99.90;;;;;;4935028;29;20210;-77
2022/04/24 15:47:36;;;;;;;16.60;15.90;;;10.10;99.90;;;;;;4935124;29;20643;-76
2022/04/24 15:50:05;;;;;;;18.07;17.13;;;10.00;99.90;;;;;;4897109;29;20864;-76
2022/04/24 15:52:32;;;;;;;17.93;17.13;;;10.00;99.90;;;;;;4897183;29;20185;-75
2022/04/24 15:54:59;;;;;;;18.97;18.07;;;9.90;99.90;;;;;;4898698;29;20267;-79
2022/04/24 15:57:24;;;;;;;25.10;24.00;;;9.80;99.90;;;;;;4897935;29;20245;-75
2022/04/24 15:59:50;;;;;;;18.60;17.77;;;9.90;99.90;;;;;;4931572;29;20679;-76
2022/04/24 16:02:17;;;;;;;19.47;18.47;;;9.90;99.90;;;;;;4934741;29;20214;-76